createdAt,value
2023-01-19T00:00:38.689Z,15.7
2023-01-19T00:01:41.745Z,15.7
2023-01-19T00:02:44.092Z,15.7
2023-01-19T00:03:46.616Z,15.7
2023-01-19T00:04:48.834Z,15.6
2023-01-19T00:05:51.522Z,15.7
2023-01-19T00:06:54.180Z,15.8
2023-01-19T00:07:56.393Z,15.7
2023-01-19T00:09:00.125Z,15.7
2023-01-19T00:10:02.680Z,15.7
2023-01-19T00:11:05.224Z,15.7
2023-01-19T00:12:07.458Z,15.7
2023-01-19T00:13:09.987Z,15.7
2023-01-19T00:14:12.238Z,15.8
2023-01-19T00:15:14.201Z,15.8
2023-01-19T00:16:16.437Z,15.7
2023-01-19T00:17:19.207Z,15.8
2023-01-19T00:18:21.830Z,15.7
2023-01-19T00:19:24.352Z,15.8
2023-01-19T00:20:26.584Z,15.8
2023-01-19T00:21:29.159Z,15.8
2023-01-19T00:22:31.667Z,15.8
2023-01-19T00:23:34.183Z,15.8
2023-01-19T00:24:36.413Z,15.8
2023-01-19T00:25:38.640Z,15.8
2023-01-19T00:26:41.126Z,15.8
2023-01-19T00:27:43.693Z,15.8
2023-01-19T00:28:46.255Z,15.7
2023-01-19T00:29:48.792Z,15.8
2023-01-19T00:30:51.310Z,15.8
2023-01-19T00:31:53.539Z,15.8
2023-01-19T00:32:56.057Z,15.7
2023-01-19T00:33:59.444Z,15.8
2023-01-19T00:35:01.984Z,15.7
2023-01-19T00:36:04.488Z,15.8
2023-01-19T00:37:07.238Z,15.8
2023-01-19T00:38:09.619Z,15.8
2023-01-19T00:39:12.123Z,15.8
2023-01-19T00:40:14.207Z,15.8
2023-01-19T00:41:16.773Z,15.8
2023-01-19T00:42:19.587Z,15.8
2023-01-19T00:43:21.915Z,15.8
2023-01-19T00:44:24.422Z,15.9
2023-01-19T00:45:27.069Z,15.8
2023-01-19T00:46:29.825Z,15.8
2023-01-19T00:47:32.316Z,15.8
2023-01-19T00:48:34.767Z,15.8
2023-01-19T00:49:37.315Z,15.8
2023-01-19T00:50:39.837Z,15.8
2023-01-19T00:51:42.335Z,15.9
2023-01-19T00:52:44.912Z,15.9
2023-01-19T00:53:47.440Z,15.8
2023-01-19T00:54:49.947Z,15.8
2023-01-19T00:55:51.938Z,15.8
2023-01-19T00:56:53.882Z,15.8
2023-01-19T00:57:56.422Z,15.9
2023-01-19T00:58:58.427Z,15.9
2023-01-19T01:00:00.794Z,15.9
2023-01-19T01:01:04.005Z,15.8
2023-01-19T01:02:07.628Z,15.9
2023-01-19T01:03:11.070Z,15.9
2023-01-19T01:04:13.905Z,15.8
2023-01-19T01:05:16.201Z,15.9
2023-01-19T01:06:18.760Z,15.9
2023-01-19T01:07:21.256Z,15.8
2023-01-19T01:08:23.959Z,15.9
2023-01-19T01:09:25.923Z,15.9
2023-01-19T01:10:28.143Z,16
2023-01-19T01:11:30.666Z,15.9
2023-01-19T01:12:32.968Z,15.8
2023-01-19T01:13:35.678Z,15.8
2023-01-19T01:14:38.312Z,16.1
2023-01-19T01:15:40.951Z,15.9
2023-01-19T01:16:43.543Z,15.9
2023-01-19T01:17:45.834Z,15.9
2023-01-19T01:18:47.839Z,16
2023-01-19T01:19:50.143Z,15.9
2023-01-19T01:21:57.659Z,16
2023-01-19T01:23:00.698Z,16
2023-01-19T01:24:05.149Z,15.9
2023-01-19T01:25:07.654Z,15.9
2023-01-19T01:26:10.166Z,16
2023-01-19T01:27:12.385Z,16
2023-01-19T01:28:14.539Z,16
2023-01-19T01:29:17.047Z,16
2023-01-19T01:30:19.300Z,15.8
2023-01-19T01:31:21.441Z,16
2023-01-19T01:32:24.086Z,15.9
2023-01-19T01:34:31.286Z,15.8
2023-01-19T01:35:33.927Z,16.1
2023-01-19T01:36:36.442Z,15.9
2023-01-19T01:37:38.985Z,15.9
2023-01-19T01:38:41.622Z,16
2023-01-19T01:39:44.193Z,15.9
2023-01-19T01:40:46.431Z,15.9
2023-01-19T01:41:48.925Z,16
2023-01-19T01:42:55.616Z,16
2023-01-19T01:43:59.047Z,16
2023-01-19T01:45:01.632Z,16
2023-01-19T01:46:04.396Z,16
2023-01-19T01:47:07.173Z,16
2023-01-19T01:48:09.669Z,16
2023-01-19T01:49:12.198Z,16
2023-01-19T01:50:14.126Z,16.1
2023-01-19T01:51:16.694Z,16
2023-01-19T01:52:19.189Z,16
2023-01-19T01:53:21.444Z,16
2023-01-19T01:54:23.950Z,15.9
2023-01-19T01:55:26.560Z,16
2023-01-19T01:56:29.053Z,16
2023-01-19T01:57:31.568Z,16
2023-01-19T01:58:33.785Z,16
2023-01-19T01:59:36.298Z,16.1
2023-01-19T02:00:38.801Z,16
2023-01-19T02:01:41.208Z,16
2023-01-19T02:02:44.187Z,15.9
2023-01-19T02:03:47.140Z,16
2023-01-19T02:04:49.441Z,16
2023-01-19T02:05:51.988Z,16
2023-01-19T02:06:54.489Z,16
2023-01-19T02:07:57.029Z,16
2023-01-19T02:08:59.540Z,15.9
2023-01-19T02:10:02.127Z,16
2023-01-19T02:11:04.687Z,15.9
2023-01-19T02:12:07.214Z,16.1
2023-01-19T02:13:09.732Z,16
2023-01-19T02:14:12.255Z,16
2023-01-19T02:15:14.747Z,15.9
2023-01-19T02:16:17.084Z,16
2023-01-19T02:17:19.737Z,16
2023-01-19T02:18:22.248Z,16.1
2023-01-19T02:19:24.762Z,16
2023-01-19T02:20:26.711Z,16.1
2023-01-19T02:21:29.216Z,16.1
2023-01-19T02:22:31.451Z,16
2023-01-19T02:23:33.955Z,16.1
2023-01-19T02:24:36.224Z,16.1
2023-01-19T02:25:38.930Z,16.2
2023-01-19T02:26:41.501Z,16
2023-01-19T02:27:43.999Z,16
2023-01-19T02:28:46.702Z,15.9
2023-01-19T02:29:49.189Z,16
2023-01-19T02:30:51.999Z,16.1
2023-01-19T02:31:54.447Z,16
2023-01-19T02:32:56.983Z,16
2023-01-19T02:34:00.651Z,16.1
2023-01-19T02:35:02.577Z,16.1
2023-01-19T02:36:04.542Z,16.1
2023-01-19T02:37:07.138Z,16.1
2023-01-19T02:38:09.462Z,16.1
2023-01-19T02:39:11.958Z,16.1
2023-01-19T02:40:14.222Z,16.1
2023-01-19T02:41:16.502Z,16.1
2023-01-19T02:42:19.183Z,16
2023-01-19T02:43:21.681Z,16.1
2023-01-19T02:44:24.319Z,16.1
2023-01-19T02:45:26.834Z,16.2
2023-01-19T02:46:29.347Z,16
2023-01-19T02:47:31.845Z,16.1
2023-01-19T02:48:34.559Z,16.1
2023-01-19T02:49:37.066Z,16.1
2023-01-19T02:50:39.360Z,16.1
2023-01-19T02:51:41.859Z,16.2
2023-01-19T02:52:44.368Z,16.2
2023-01-19T02:53:46.879Z,16
2023-01-19T02:54:48.854Z,16
2023-01-19T02:55:51.395Z,16
2023-01-19T02:56:53.899Z,16.1
2023-01-19T02:57:56.513Z,16
2023-01-19T02:58:58.785Z,16
2023-01-19T03:00:01.467Z,16
2023-01-19T03:01:03.896Z,16.1
2023-01-19T03:02:07.008Z,16.1
2023-01-19T03:03:10.042Z,16
2023-01-19T03:04:12.734Z,16.1
2023-01-19T03:05:15.281Z,16.1
2023-01-19T03:06:17.797Z,16.1
2023-01-19T03:07:20.304Z,16.1
2023-01-19T03:08:22.839Z,16.1
2023-01-19T03:09:24.842Z,16.1
2023-01-19T03:10:27.363Z,16.1
2023-01-19T03:11:29.612Z,16.1
2023-01-19T03:12:31.854Z,16.1
2023-01-19T03:13:34.488Z,16.1
2023-01-19T03:14:36.984Z,16.1
2023-01-19T03:15:39.533Z,16.1
2023-01-19T03:16:41.955Z,16.2
2023-01-19T03:17:44.093Z,16.1
2023-01-19T03:18:46.380Z,16.1
2023-01-19T03:19:48.728Z,16.1
2023-01-19T03:20:51.243Z,16
2023-01-19T03:21:53.739Z,16.1
2023-01-19T03:22:56.244Z,16
2023-01-19T03:23:58.535Z,16.1
2023-01-19T03:25:01.072Z,16.1
2023-01-19T03:26:03.581Z,16.1
2023-01-19T03:27:06.105Z,16.1
2023-01-19T03:28:08.626Z,16.1
2023-01-19T03:29:10.831Z,15.9
2023-01-19T03:30:13.346Z,16.2
2023-01-19T03:31:15.945Z,16.1
2023-01-19T03:32:18.666Z,16.1
2023-01-19T03:33:20.870Z,16
2023-01-19T03:34:23.364Z,16.1
2023-01-19T03:35:25.905Z,16.1
2023-01-19T03:36:28.116Z,16.1
2023-01-19T03:37:30.611Z,16.1
2023-01-19T03:38:33.267Z,16.1
2023-01-19T03:39:35.774Z,16.1
2023-01-19T03:40:37.714Z,16.1
2023-01-19T03:41:39.819Z,16.1
2023-01-19T03:42:42.528Z,16.2
2023-01-19T03:43:45.186Z,16.2
2023-01-19T03:44:47.739Z,16.1
2023-01-19T03:45:50.105Z,16.1
2023-01-19T03:46:52.779Z,16.1
2023-01-19T03:47:55.313Z,16.1
2023-01-19T03:48:57.821Z,16
2023-01-19T03:50:00.392Z,16.1
2023-01-19T03:51:03.033Z,16.1
2023-01-19T03:52:05.340Z,16.1
2023-01-19T03:53:07.649Z,16.1
2023-01-19T03:54:10.155Z,16.1
2023-01-19T03:55:12.390Z,16.2
2023-01-19T03:56:14.913Z,16.1
2023-01-19T03:57:16.856Z,16.1
2023-01-19T03:58:19.111Z,16
2023-01-19T03:59:21.630Z,16.2
2023-01-19T04:00:24.205Z,16.1
2023-01-19T04:01:26.770Z,16.2
2023-01-19T04:02:30.106Z,16.1
2023-01-19T04:03:32.461Z,16.1
2023-01-19T04:04:34.970Z,16.2
2023-01-19T04:05:37.480Z,16
2023-01-19T04:06:39.728Z,16.3
2023-01-19T04:07:41.996Z,16
2023-01-19T04:08:44.505Z,16.1
2023-01-19T04:09:46.734Z,16
2023-01-19T04:10:49.239Z,16.1
2023-01-19T04:11:51.764Z,16.1
2023-01-19T04:12:54.270Z,16.1
2023-01-19T04:13:55.963Z,16
2023-01-19T04:14:58.490Z,16.1
2023-01-19T04:16:01.284Z,16.1
2023-01-19T04:17:04.226Z,16
2023-01-19T04:18:06.164Z,16.2
2023-01-19T04:19:08.712Z,15.9
2023-01-19T04:20:10.925Z,16.1
2023-01-19T04:21:12.893Z,16
2023-01-19T04:22:15.431Z,16
2023-01-19T04:23:17.917Z,16
2023-01-19T04:24:20.417Z,16
2023-01-19T04:25:22.993Z,16
2023-01-19T04:26:25.249Z,16
2023-01-19T04:27:27.470Z,16
2023-01-19T04:28:29.954Z,16
2023-01-19T04:29:32.729Z,16
2023-01-19T04:30:35.221Z,16
2023-01-19T04:31:37.978Z,15.9
2023-01-19T04:32:40.461Z,16
2023-01-19T04:33:42.959Z,16.1
2023-01-19T04:34:45.498Z,16
2023-01-19T04:35:48.000Z,15.9
2023-01-19T04:36:50.828Z,15.9
2023-01-19T04:37:53.712Z,15.9
2023-01-19T04:38:56.273Z,16.1
2023-01-19T04:39:58.894Z,16
2023-01-19T04:41:01.164Z,16.1
2023-01-19T04:42:03.760Z,15.9
2023-01-19T04:43:06.280Z,16.1
2023-01-19T04:44:08.783Z,15.9
2023-01-19T04:45:11.314Z,15.9
2023-01-19T04:46:13.602Z,15.9
2023-01-19T04:47:16.262Z,16
2023-01-19T04:48:18.758Z,15.9
2023-01-19T04:49:21.312Z,16.1
2023-01-19T04:50:23.810Z,15.9
2023-01-19T04:51:26.073Z,15.9
2023-01-19T04:52:28.312Z,15.9
2023-01-19T04:53:30.842Z,16
2023-01-19T04:54:33.537Z,16.1
2023-01-19T04:55:36.355Z,15.9
2023-01-19T04:56:38.851Z,16
2023-01-19T04:57:41.114Z,15.9
2023-01-19T04:58:43.629Z,15.9
2023-01-19T04:59:46.178Z,15.8
2023-01-19T05:00:48.799Z,15.8
2023-01-19T05:01:52.106Z,15.9
2023-01-19T05:02:54.889Z,15.8
2023-01-19T05:03:57.444Z,16
2023-01-19T05:04:59.945Z,15.9
2023-01-19T05:06:01.609Z,16
2023-01-19T05:07:04.119Z,16
2023-01-19T05:08:06.358Z,15.8
2023-01-19T05:09:08.630Z,15.9
2023-01-19T05:10:11.125Z,15.8
2023-01-19T05:11:13.618Z,15.8
2023-01-19T05:12:15.886Z,15.8
2023-01-19T05:13:18.176Z,15.9
2023-01-19T05:14:20.669Z,15.9
2023-01-19T05:15:22.667Z,15.9
2023-01-19T05:16:25.529Z,15.9
2023-01-19T05:17:28.311Z,15.8
2023-01-19T05:18:30.916Z,15.8
2023-01-19T05:19:33.421Z,15.9
2023-01-19T05:20:35.654Z,15.8
2023-01-19T05:21:38.156Z,15.9
2023-01-19T05:22:40.394Z,15.8
2023-01-19T05:23:42.619Z,15.8
2023-01-19T05:24:44.940Z,15.8
2023-01-19T05:25:47.487Z,15.8
2023-01-19T05:26:49.723Z,15.8
2023-01-19T05:27:51.960Z,15.9
2023-01-19T05:28:54.459Z,15.9
2023-01-19T05:29:56.950Z,15.9
2023-01-19T05:30:59.754Z,15.9
2023-01-19T05:32:02.060Z,15.9
2023-01-19T05:33:05.114Z,15.8
2023-01-19T05:34:07.712Z,15.8
2023-01-19T05:35:10.280Z,15.8
2023-01-19T05:36:12.503Z,15.8
2023-01-19T05:37:15.046Z,15.9
2023-01-19T05:39:22.255Z,16
2023-01-19T05:40:24.534Z,15.7
2023-01-19T05:41:27.192Z,15.8
2023-01-19T05:42:32.659Z,15.9
2023-01-19T05:43:35.141Z,15.8
2023-01-19T05:44:37.642Z,15.8
2023-01-19T05:45:39.868Z,15.8
2023-01-19T05:46:42.497Z,15.9
2023-01-19T05:47:45.194Z,15.8
2023-01-19T05:48:47.740Z,15.9
2023-01-19T05:49:50.454Z,15.9
2023-01-19T05:50:52.948Z,15.8
2023-01-19T05:51:55.451Z,15.8
2023-01-19T05:52:58.268Z,15.8
2023-01-19T05:54:02.596Z,15.8
2023-01-19T05:55:05.110Z,15.9
2023-01-19T05:56:07.490Z,15.8
2023-01-19T05:57:10.084Z,15.9
2023-01-19T05:58:12.688Z,15.8
2023-01-19T05:59:15.285Z,15.8
2023-01-19T06:00:17.825Z,15.8
2023-01-19T06:01:20.215Z,15.8
2023-01-19T06:02:23.437Z,15.8
2023-01-19T06:03:26.058Z,15.8
2023-01-19T06:04:28.772Z,15.8
2023-01-19T06:05:31.245Z,15.8
2023-01-19T06:06:33.742Z,15.7
2023-01-19T06:07:35.748Z,15.8
2023-01-19T06:08:38.249Z,15.8
2023-01-19T06:09:40.760Z,15.8
2023-01-19T06:10:43.460Z,15.8
2023-01-19T06:11:45.982Z,15.8
2023-01-19T06:12:48.548Z,15.8
2023-01-19T06:13:51.374Z,15.8
2023-01-19T06:14:54.006Z,15.8
2023-01-19T06:15:56.488Z,15.9
2023-01-19T06:16:58.651Z,15.8
2023-01-19T06:18:01.179Z,15.8
2023-01-19T06:19:03.749Z,15.8
2023-01-19T06:20:06.010Z,15.8
2023-01-19T06:21:08.645Z,15.8
2023-01-19T06:22:10.859Z,15.9
2023-01-19T06:23:13.348Z,15.9
2023-01-19T06:24:15.570Z,15.8
2023-01-19T06:25:18.070Z,15.8
2023-01-19T06:26:20.323Z,15.8
2023-01-19T06:27:22.850Z,15.8
2023-01-19T06:28:25.109Z,15.8
2023-01-19T06:29:29.530Z,15.8
2023-01-19T06:30:31.604Z,15.8
2023-01-19T06:31:34.441Z,15.8
2023-01-19T06:32:36.997Z,15.8
2023-01-19T06:33:39.203Z,15.8
2023-01-19T06:34:41.508Z,15.8
2023-01-19T06:35:43.748Z,15.8
2023-01-19T06:36:46.318Z,15.8
2023-01-19T06:37:48.833Z,15.7
2023-01-19T06:38:51.344Z,15.8
2023-01-19T06:39:53.585Z,15.7
2023-01-19T06:40:55.700Z,15.8
2023-01-19T06:41:57.911Z,15.7
2023-01-19T06:43:01.280Z,15.8
2023-01-19T06:44:04.915Z,15.8
2023-01-19T06:45:07.414Z,15.9
2023-01-19T06:46:09.774Z,15.8
2023-01-19T06:48:17.525Z,15.9
2023-01-19T06:49:20.057Z,15.7
2023-01-19T06:50:22.586Z,15.8
2023-01-19T06:51:25.119Z,15.8
2023-01-19T06:52:27.697Z,15.7
2023-01-19T06:53:29.914Z,15.8
2023-01-19T06:54:32.203Z,15.8
2023-01-19T06:55:34.707Z,15.8
2023-01-19T06:56:37.078Z,15.8
2023-01-19T06:57:41.343Z,15.8
2023-01-19T06:58:44.021Z,15.8
2023-01-19T06:59:46.286Z,15.8
2023-01-19T07:00:49.137Z,15.8
2023-01-19T07:01:52.514Z,15.8
2023-01-19T07:02:55.614Z,15.8
2023-01-19T07:03:58.397Z,15.8
2023-01-19T07:05:00.904Z,15.8
2023-01-19T07:06:03.196Z,15.8
2023-01-19T07:07:05.226Z,15.8
2023-01-19T07:08:07.321Z,15.8
2023-01-19T07:09:09.568Z,15.8
2023-01-19T07:10:12.345Z,15.8
2023-01-19T07:12:19.387Z,15.8
2023-01-19T07:13:21.931Z,15.8
2023-01-19T07:14:24.469Z,15.8
2023-01-19T07:15:26.969Z,15.7
2023-01-19T07:16:28.999Z,15.7
2023-01-19T07:17:31.773Z,15.7
2023-01-19T07:18:34.009Z,15.8
2023-01-19T07:19:36.622Z,15.8
2023-01-19T07:20:39.159Z,15.8
2023-01-19T07:21:41.708Z,15.8
2023-01-19T07:22:43.999Z,15.8
2023-01-19T07:23:46.645Z,15.8
2023-01-19T07:24:49.301Z,15.8
2023-01-19T07:25:51.803Z,15.8
2023-01-19T07:26:54.119Z,15.8
2023-01-19T07:27:56.606Z,15.8
2023-01-19T07:28:59.120Z,15.7
2023-01-19T07:30:01.761Z,15.8
2023-01-19T07:31:04.040Z,15.8
2023-01-19T07:32:06.725Z,15.8
2023-01-19T07:33:09.305Z,15.7
2023-01-19T07:34:13.107Z,15.8
2023-01-19T07:35:15.079Z,15.8
2023-01-19T07:36:17.347Z,15.8
2023-01-19T07:37:19.613Z,15.7
2023-01-19T07:38:22.115Z,15.7
2023-01-19T07:39:24.887Z,15.7
2023-01-19T07:40:27.579Z,15.8
2023-01-19T07:41:30.272Z,15.7
2023-01-19T07:42:32.771Z,15.7
2023-01-19T07:43:35.007Z,15.8
2023-01-19T07:44:37.556Z,15.8
2023-01-19T07:45:40.252Z,15.7
2023-01-19T07:46:43.064Z,15.8
2023-01-19T07:47:45.740Z,15.8
2023-01-19T07:48:48.315Z,15.7
2023-01-19T07:49:50.814Z,15.8
2023-01-19T07:50:53.060Z,15.7
2023-01-19T07:51:55.563Z,15.8
2023-01-19T07:52:57.622Z,15.7
2023-01-19T07:54:01.187Z,15.8
2023-01-19T07:55:03.533Z,15.7
2023-01-19T07:56:06.038Z,15.7
2023-01-19T07:57:08.260Z,15.8
2023-01-19T07:58:10.509Z,15.8
2023-01-19T07:59:12.959Z,15.7
2023-01-19T08:00:15.461Z,15.8
2023-01-19T08:01:18.147Z,15.8
2023-01-19T08:02:21.073Z,15.8
2023-01-19T08:03:23.952Z,15.8
2023-01-19T08:04:26.269Z,15.8
2023-01-19T08:05:29.167Z,15.7
2023-01-19T08:06:31.454Z,15.8
2023-01-19T08:07:33.988Z,15.8
2023-01-19T08:08:36.579Z,15.8
2023-01-19T08:09:38.574Z,15.8
2023-01-19T08:10:41.176Z,15.7
2023-01-19T08:11:43.218Z,15.8
2023-01-19T08:12:45.732Z,15.8
2023-01-19T08:13:48.270Z,15.7
2023-01-19T08:14:50.585Z,15.7
2023-01-19T08:15:53.212Z,15.8
2023-01-19T08:16:55.967Z,15.8
2023-01-19T08:17:58.507Z,15.7
2023-01-19T08:19:00.752Z,15.8
2023-01-19T08:20:03.272Z,15.7
2023-01-19T08:21:05.808Z,15.7
2023-01-19T08:22:08.046Z,15.8
2023-01-19T08:23:10.628Z,15.7
2023-01-19T08:24:12.761Z,15.7
2023-01-19T08:25:15.432Z,15.7
2023-01-19T08:26:17.552Z,15.8
2023-01-19T08:27:19.785Z,15.7
2023-01-19T08:28:22.079Z,15.8
2023-01-19T08:29:24.605Z,15.7
2023-01-19T08:30:27.103Z,15.8
2023-01-19T08:31:29.897Z,15.8
2023-01-19T08:32:33.113Z,15.7
2023-01-19T08:33:35.639Z,15.7
2023-01-19T08:34:38.177Z,15.8
2023-01-19T08:35:40.419Z,15.8
2023-01-19T08:36:42.929Z,15.7
2023-01-19T08:37:45.447Z,15.8
2023-01-19T08:38:47.993Z,15.7
2023-01-19T08:39:49.968Z,15.7
2023-01-19T08:40:52.474Z,15.7
2023-01-19T08:41:54.822Z,15.7
2023-01-19T08:42:57.372Z,15.7
2023-01-19T08:44:00.549Z,15.7
2023-01-19T08:45:03.102Z,15.7
2023-01-19T08:46:05.662Z,15.8
2023-01-19T08:47:08.536Z,15.8
2023-01-19T08:48:11.520Z,15.7
2023-01-19T08:49:14.112Z,15.7
2023-01-19T08:50:16.674Z,15.8
2023-01-19T08:51:18.740Z,15.7
2023-01-19T08:52:21.239Z,15.8
2023-01-19T08:53:23.546Z,15.7
2023-01-19T08:54:25.537Z,15.7
2023-01-19T08:55:28.100Z,15.8
2023-01-19T08:56:30.642Z,15.8
2023-01-19T08:57:33.412Z,15.6
2023-01-19T08:58:35.944Z,15.5
2023-01-19T08:59:38.609Z,15.7
2023-01-19T09:00:40.561Z,15.8
2023-01-19T09:01:43.134Z,15.7
2023-01-19T09:02:46.037Z,15.7
2023-01-19T09:03:48.549Z,15.7
2023-01-19T09:04:51.069Z,15.7
2023-01-19T09:05:53.584Z,15.7
2023-01-19T09:06:55.848Z,15.6
2023-01-19T09:07:57.778Z,15.7
2023-01-19T09:09:01.323Z,15.7
2023-01-19T09:10:03.621Z,15.8
2023-01-19T09:11:05.720Z,15.7
2023-01-19T09:12:07.923Z,15.7
2023-01-19T09:13:10.360Z,15.7
2023-01-19T09:14:12.734Z,15.7
2023-01-19T09:15:14.785Z,15.7
2023-01-19T09:16:17.193Z,15.5
2023-01-19T09:17:19.759Z,15.7
2023-01-19T09:18:21.713Z,15.7
2023-01-19T09:19:24.280Z,15.7
2023-01-19T09:20:26.513Z,15.7
2023-01-19T09:21:28.752Z,15.7
2023-01-19T09:22:31.283Z,15.6
2023-01-19T09:23:33.802Z,15.6
2023-01-19T09:24:36.048Z,15.6
2023-01-19T09:25:38.580Z,15.7
2023-01-19T09:26:41.121Z,15.7
2023-01-19T09:27:43.666Z,15.7
2023-01-19T09:28:46.041Z,15.7
2023-01-19T09:29:48.045Z,15.7
2023-01-19T09:30:50.797Z,15.6
2023-01-19T09:31:53.989Z,15.7
2023-01-19T09:32:59.404Z,15.7
2023-01-19T09:34:02.000Z,15.7
2023-01-19T09:35:04.559Z,15.7
2023-01-19T09:36:07.080Z,15.5
2023-01-19T09:37:09.336Z,15.7
2023-01-19T09:38:11.289Z,15.7
2023-01-19T09:39:13.287Z,15.7
2023-01-19T09:40:15.590Z,15.7
2023-01-19T09:41:18.134Z,15.7
2023-01-19T09:42:20.754Z,15.7
2023-01-19T09:43:23.269Z,15.7
2023-01-19T09:44:25.940Z,15.6
2023-01-19T09:45:28.203Z,15.7
2023-01-19T09:46:30.963Z,15.7
2023-01-19T09:47:33.495Z,15.7
2023-01-19T09:48:36.001Z,15.7
2023-01-19T09:49:38.505Z,15.6
2023-01-19T09:50:42.062Z,15.6
2023-01-19T09:51:45.924Z,15.6
2023-01-19T09:52:47.902Z,15.7
2023-01-19T09:53:50.134Z,15.8
2023-01-19T09:54:52.415Z,15.7
2023-01-19T09:55:54.936Z,15.7
2023-01-19T09:56:57.449Z,15.6
2023-01-19T09:58:00.794Z,15.7
2023-01-19T09:59:05.109Z,15.8
2023-01-19T10:00:07.694Z,15.7
2023-01-19T10:01:10.477Z,15.5
2023-01-19T10:02:13.458Z,15.8
2023-01-19T10:03:15.530Z,15.7
2023-01-19T10:04:18.034Z,15.5
2023-01-19T10:05:20.008Z,15.7
2023-01-19T10:06:22.104Z,15.6
2023-01-19T10:07:24.344Z,15.8
2023-01-19T10:08:26.673Z,15.8
2023-01-19T10:09:29.201Z,15.6
2023-01-19T10:10:31.751Z,15.6
2023-01-19T10:12:39.282Z,15.7
2023-01-19T10:13:41.335Z,15.7
2023-01-19T10:14:43.831Z,15.7
2023-01-19T10:15:46.684Z,15.7
2023-01-19T10:16:49.174Z,15.7
2023-01-19T10:17:51.103Z,15.7
2023-01-19T10:18:53.354Z,15.6
2023-01-19T10:19:55.861Z,15.7
2023-01-19T10:20:58.533Z,15.6
2023-01-19T10:22:01.921Z,15.6
2023-01-19T10:23:05.018Z,15.6
2023-01-19T10:24:07.554Z,15.7
2023-01-19T10:25:09.919Z,15.5
2023-01-19T10:26:12.186Z,15.7
2023-01-19T10:27:14.760Z,15.7
2023-01-19T10:28:17.027Z,15.7
2023-01-19T10:29:19.506Z,15.7
2023-01-19T10:30:21.780Z,15.7
2023-01-19T10:31:24.663Z,15.7
2023-01-19T10:32:27.667Z,15.7
2023-01-19T10:33:30.264Z,15.7
2023-01-19T10:34:32.573Z,15.6
2023-01-19T10:35:34.911Z,15.6
2023-01-19T10:36:37.521Z,15.6
2023-01-19T10:37:39.917Z,15.7
2023-01-19T10:38:42.535Z,15.8
2023-01-19T10:39:45.274Z,15.6
2023-01-19T10:40:47.665Z,15.6
2023-01-19T10:41:50.341Z,15.6
2023-01-19T10:42:52.618Z,15.7
2023-01-19T10:43:55.254Z,15.7
2023-01-19T10:44:57.827Z,15.5
2023-01-19T10:46:00.209Z,15.5
2023-01-19T10:47:03.349Z,15.5
2023-01-19T10:48:05.793Z,15.8
2023-01-19T10:49:08.589Z,15.7
2023-01-19T10:50:11.216Z,15.8
2023-01-19T10:51:13.658Z,15.5
2023-01-19T10:53:21.222Z,15.6
2023-01-19T10:54:23.545Z,15.6
2023-01-19T10:55:25.817Z,15.6
2023-01-19T10:56:28.452Z,15.7
2023-01-19T10:57:30.412Z,15.6
2023-01-19T10:58:33.051Z,15.7
2023-01-19T10:59:35.429Z,15.6
2023-01-19T11:00:38.079Z,15.7
2023-01-19T11:01:41.190Z,15.6
2023-01-19T11:02:44.540Z,15.7
2023-01-19T11:03:47.165Z,15.8
2023-01-19T11:04:50.655Z,15.7
2023-01-19T11:05:53.328Z,15.5
2023-01-19T11:06:55.605Z,15.6
2023-01-19T11:07:58.156Z,15.6
2023-01-19T11:09:00.748Z,15.5
2023-01-19T11:10:02.968Z,15.6
2023-01-19T11:11:05.520Z,15.6
2023-01-19T11:12:08.028Z,15.6
2023-01-19T11:13:10.279Z,15.6
2023-01-19T11:14:12.796Z,15.5
2023-01-19T11:15:15.334Z,15.7
2023-01-19T11:16:17.934Z,15.5
2023-01-19T11:17:20.517Z,15.6
2023-01-19T11:18:23.118Z,15.6
2023-01-19T11:19:25.674Z,15.7
2023-01-19T11:20:27.652Z,15.7
2023-01-19T11:21:30.170Z,15.5
2023-01-19T11:22:32.444Z,15.7
2023-01-19T11:23:35.033Z,15.6
2023-01-19T11:24:37.588Z,15.6
2023-01-19T11:25:40.092Z,15.7
2023-01-19T11:26:42.631Z,15.7
2023-01-19T11:27:45.217Z,15.5
2023-01-19T11:28:47.132Z,15.6
2023-01-19T11:29:49.664Z,15.6
2023-01-19T11:30:51.978Z,15.7
2023-01-19T11:31:54.876Z,15.6
2023-01-19T11:32:57.264Z,15.6
2023-01-19T11:34:00.758Z,15.5
2023-01-19T11:35:03.294Z,15.5
2023-01-19T11:36:05.861Z,15.7
2023-01-19T11:37:08.378Z,15.7
2023-01-19T11:38:10.608Z,15.7
2023-01-19T11:39:13.156Z,15.6
2023-01-19T11:40:15.698Z,15.6
2023-01-19T11:41:17.652Z,15.7
2023-01-19T11:42:20.232Z,15.6
2023-01-19T11:43:22.745Z,15.4
2023-01-19T11:44:24.975Z,15.6
2023-01-19T11:45:27.582Z,15.6
2023-01-19T11:46:30.292Z,15.6
2023-01-19T11:47:32.588Z,15.7
2023-01-19T11:48:35.115Z,15.6
2023-01-19T11:49:37.199Z,15.5
2023-01-19T11:50:39.472Z,15.6
2023-01-19T11:51:42.033Z,15.7
2023-01-19T11:52:44.322Z,15.6
2023-01-19T11:53:46.840Z,15.7
2023-01-19T11:54:49.092Z,15.5
2023-01-19T11:55:51.604Z,15.5
2023-01-19T11:56:53.825Z,15.7
2023-01-19T11:57:55.744Z,15.5
2023-01-19T11:58:57.944Z,15.7
2023-01-19T12:00:00.432Z,15.5
2023-01-19T12:01:02.808Z,15.5
2023-01-19T12:02:05.685Z,15.7
2023-01-19T12:03:08.583Z,15.5
2023-01-19T12:04:11.425Z,15.7
2023-01-19T12:05:14.198Z,15.7
2023-01-19T12:06:16.429Z,15.8
2023-01-19T12:07:19.638Z,15.5
2023-01-19T12:08:21.845Z,15.8
2023-01-19T12:09:24.074Z,15.8
2023-01-19T12:10:26.626Z,15.7
2023-01-19T12:11:29.244Z,15.6
2023-01-19T12:12:31.459Z,15.6
2023-01-19T12:13:33.959Z,15.6
2023-01-19T12:14:36.458Z,15.7
2023-01-19T12:15:38.703Z,15.6
2023-01-19T12:16:41.162Z,15.5
2023-01-19T12:17:44.111Z,15.6
2023-01-19T12:18:46.800Z,15.6
2023-01-19T12:19:49.321Z,15.5
2023-01-19T12:20:56.633Z,15.6
2023-01-19T12:21:59.135Z,15.6
2023-01-19T12:23:01.112Z,15.6
2023-01-19T12:24:03.151Z,15.6
2023-01-19T12:25:05.872Z,15.7
2023-01-19T12:26:08.394Z,15.7
2023-01-19T12:27:10.981Z,15.7
2023-01-19T12:28:13.642Z,15.8
2023-01-19T12:29:16.333Z,15.7
2023-01-19T12:30:18.325Z,15.6
2023-01-19T12:31:21.204Z,15.7
2023-01-19T12:32:24.525Z,15.7
2023-01-19T12:33:27.072Z,15.5
2023-01-19T12:34:29.079Z,15.5
2023-01-19T12:35:31.017Z,15.7
2023-01-19T12:36:33.718Z,15.7
2023-01-19T12:37:36.263Z,15.6
2023-01-19T12:38:38.808Z,15.6
2023-01-19T12:39:41.758Z,15.6
2023-01-19T12:40:44.279Z,15.6
2023-01-19T12:41:46.555Z,15.8
2023-01-19T12:42:49.095Z,15.7
2023-01-19T12:43:50.763Z,15.6
2023-01-19T12:44:53.296Z,15.8
2023-01-19T12:45:55.618Z,15.6
2023-01-19T12:46:58.003Z,15.5
2023-01-19T12:47:59.983Z,15.6
2023-01-19T12:49:02.217Z,15.6
2023-01-19T12:50:04.185Z,15.7
2023-01-19T12:51:06.692Z,15.5
2023-01-19T12:52:09.325Z,15.5
2023-01-19T12:53:11.557Z,15.7
2023-01-19T12:54:14.088Z,15.5
2023-01-19T12:55:16.607Z,15.6
2023-01-19T12:56:18.273Z,15.6
2023-01-19T12:57:20.766Z,15.6
2023-01-19T12:58:23.366Z,15.5
2023-01-19T12:59:25.656Z,15.4
2023-01-19T13:00:27.892Z,15.7
2023-01-19T13:01:30.131Z,15.6
2023-01-19T13:02:33.313Z,15.6
2023-01-19T13:03:35.756Z,15.7
2023-01-19T13:04:38.740Z,15.6
2023-01-19T13:05:41.297Z,15.5
2023-01-19T13:06:43.557Z,15.7
2023-01-19T13:07:46.191Z,15.7
2023-01-19T13:08:48.427Z,15.7
2023-01-19T13:09:50.984Z,15.7
2023-01-19T13:10:53.104Z,15.6
2023-01-19T13:13:00.336Z,15.5
2023-01-19T13:14:02.852Z,15.6
2023-01-19T13:15:05.100Z,15.4
2023-01-19T13:16:07.744Z,15.4
2023-01-19T13:17:10.539Z,15.5
2023-01-19T13:18:13.052Z,15.6
2023-01-19T13:19:15.599Z,15.5
2023-01-19T13:20:17.879Z,15.5
2023-01-19T13:21:20.181Z,15.7
2023-01-19T13:22:22.444Z,15.5
2023-01-19T13:23:25.035Z,15.7
2023-01-19T13:24:27.085Z,15.6
2023-01-19T13:25:29.348Z,15.6
2023-01-19T13:26:31.566Z,15.6
2023-01-19T13:27:33.842Z,15.5
2023-01-19T13:28:36.084Z,15.6
2023-01-19T13:29:38.645Z,15.6
2023-01-19T13:30:41.081Z,15.6
2023-01-19T13:31:44.189Z,15.5
2023-01-19T13:32:47.107Z,15.6
2023-01-19T13:33:49.636Z,15.5
2023-01-19T13:34:52.199Z,15.5
2023-01-19T13:35:54.500Z,15.7
2023-01-19T13:36:57.059Z,15.6
2023-01-19T13:37:59.013Z,15.7
2023-01-19T13:39:01.711Z,15.5
2023-01-19T13:40:04.171Z,15.4
2023-01-19T13:41:06.156Z,15.5
2023-01-19T13:42:08.709Z,15.6
2023-01-19T13:43:10.671Z,15.6
2023-01-19T13:44:12.918Z,15.6
2023-01-19T13:45:15.158Z,15.5
2023-01-19T13:46:17.514Z,15.7
2023-01-19T13:47:19.723Z,15.5
2023-01-19T13:48:21.681Z,15.5
2023-01-19T13:49:23.395Z,15.5
2023-01-19T13:50:25.682Z,15.5
2023-01-19T13:51:28.224Z,15.5
2023-01-19T13:52:30.709Z,15.6
2023-01-19T13:53:33.364Z,15.7
2023-01-19T13:54:36.140Z,15.5
2023-01-19T13:55:38.403Z,15.5
2023-01-19T13:56:40.712Z,15.6
2023-01-19T13:57:43.072Z,15.6
2023-01-19T13:58:45.423Z,15.5
2023-01-19T13:59:47.698Z,15.5
2023-01-19T14:00:50.134Z,15.5
2023-01-19T14:01:52.834Z,15.5
2023-01-19T14:02:57.008Z,15.5
2023-01-19T14:03:59.540Z,15.6
2023-01-19T14:05:01.937Z,15.6
2023-01-19T14:06:04.544Z,15.7
2023-01-19T14:07:07.434Z,15.4